sensor_id;sensor_type;location;lat;lon;timestamp;temperature;humidity
20881;DHT22;10600;53.096;8.802;2023-12-20T00:00:30;5.80;99.90
20881;DHT22;10600;53.096;8.802;2023-12-20T00:01:30;5.80;99.90
20881;DHT22;10600;53.096;8.802;2023-12-20T00:02:31;5.80;99.90
20881;DHT22;10600;53.096;8.802;2023-12-20T00:03:31;5.80;99.90
20881;DHT22;10600;53.096;8.802;2023-12-20T00:04:32;5.80;99.90
20881;DHT22;10600;53.096;8.802;2023-12-20T00:05:32;5.80;99.90
20881;DHT22;10600;53.096;8.802;2023-12-20T00:06:33;5.80;99.90
20881;DHT22;10600;53.096;8.802;2023-12-20T00:07:34;5.80;99.90
20881;DHT22;10600;53.096;8.802;2023-12-20T00:08:34;5.80;99.90
20881;DHT22;10600;53.096;8.802;2023-12-20T00:09:35;5.80;99.90
20881;DHT22;10600;53.096;8.802;2023-12-20T00:10:35;5.80;99.90
20881;DHT22;10600;53.096;8.802;2023-12-20T00:11:36;5.80;99.90
20881;DHT22;10600;53.096;8.802;2023-12-20T00:12:36;5.80;99.90
20881;DHT22;10600;53.096;8.802;2023-12-20T00:13:37;5.80;99.90
20881;DHT22;10600;53.096;8.802;2023-12-20T00:14:38;5.80;99.90
20881;DHT22;10600;53.096;8.802;2023-12-20T00:15:38;5.80;99.90
20881;DHT22;10600;53.096;8.802;2023-12-20T00:16:39;5.80;99.90
20881;DHT22;10600;53.096;8.802;2023-12-20T00:17:39;5.80;99.90
20881;DHT22;10600;53.096;8.802;2023-12-20T00:18:40;5.90;99.90
20881;DHT22;10600;53.096;8.802;2023-12-20T00:19:40;5.80;99.90
20881;DHT22;10600;53.096;8.802;2023-12-20T00:20:41;5.80;99.90
20881;DHT22;10600;53.096;8.802;2023-12-20T00:21:41;5.80;99.90
20881;DHT22;10600;53.096;8.802;2023-12-20T00:22:42;5.80;99.90
20881;DHT22;10600;53.096;8.802;2023-12-20T00:23:43;5.80;99.90
20881;DHT22;10600;53.096;8.802;2023-12-20T00:24:43;5.80;99.90
20881;DHT22;10600;53.096;8.802;2023-12-20T00:25:44;5.80;99.90
20881;DHT22;10600;53.096;8.802;2023-12-20T00:26:44;5.80;99.90
20881;DHT22;10600;53.096;8.802;2023-12-20T00:27:45;5.80;99.90
20881;DHT22;10600;53.096;8.802;2023-12-20T00:28:45;5.80;99.90
20881;DHT22;10600;53.096;8.802;2023-12-20T00:29:46;5.70;99.90
20881;DHT22;10600;53.096;8.802;2023-12-20T00:30:49;5.70;99.90
20881;DHT22;10600;53.096;8.802;2023-12-20T00:31:50;5.70;99.90
20881;DHT22;10600;53.096;8.802;2023-12-20T00:32:50;5.70;99.90
20881;DHT22;10600;53.096;8.802;2023-12-20T00:33:51;5.70;99.90
20881;DHT22;10600;53.096;8.802;2023-12-20T00:34:52;5.70;99.90
20881;DHT22;10600;53.096;8.802;2023-12-20T00:35:53;5.70;99.90
20881;DHT22;10600;53.096;8.802;2023-12-20T00:36:53;5.70;99.90
20881;DHT22;10600;53.096;8.802;2023-12-20T00:37:55;5.70;99.90
20881;DHT22;10600;53.096;8.802;2023-12-20T00:38:55;5.70;99.90
20881;DHT22;10600;53.096;8.802;2023-12-20T00:39:56;5.70;99.90
20881;DHT22;10600;53.096;8.802;2023-12-20T00:40:56;5.70;99.90
20881;DHT22;10600;53.096;8.802;2023-12-20T00:41:57;5.70;99.90
20881;DHT22;10600;53.096;8.802;2023-12-20T00:42:57;5.70;99.90
20881;DHT22;10600;53.096;8.802;2023-12-20T00:43:58;5.70;99.90
20881;DHT22;10600;53.096;8.802;2023-12-20T00:44:59;5.70;99.90
20881;DHT22;10600;53.096;8.802;2023-12-20T00:46:00;5.70;99.90
20881;DHT22;10600;53.096;8.802;2023-12-20T00:47:00;5.70;99.90
20881;DHT22;10600;53.096;8.802;2023-12-20T00:48:01;5.70;99.90
20881;DHT22;10600;53.096;8.802;2023-12-20T00:49:02;5.70;99.90
20881;DHT22;10600;53.096;8.802;2023-12-20T00:50:03;5.70;99.90
20881;DHT22;10600;53.096;8.802;2023-12-20T00:51:03;5.70;99.90
20881;DHT22;10600;53.096;8.802;2023-12-20T00:52:04;5.70;99.90
20881;DHT22;10600;53.096;8.802;2023-12-20T00:53:05;5.70;99.90
20881;DHT22;10600;53.096;8.802;2023-12-20T00:54:06;5.60;99.90
20881;DHT22;10600;53.096;8.802;2023-12-20T00:55:06;5.60;99.90
20881;DHT22;10600;53.096;8.802;2023-12-20T00:56:07;5.60;99.90
20881;DHT22;10600;53.096;8.802;2023-12-20T00:57:08;5.60;99.90
20881;DHT22;10600;53.096;8.802;2023-12-20T00:58:09;5.60;99.90
20881;DHT22;10600;53.096;8.802;2023-12-20T00:59:09;5.60;99.90
20881;DHT22;10600;53.096;8.802;2023-12-20T01:00:11;5.60;99.90
20881;DHT22;10600;53.096;8.802;2023-12-20T01:01:13;5.60;99.90
20881;DHT22;10600;53.096;8.802;2023-12-20T01:02:14;5.60;99.90
20881;DHT22;10600;53.096;8.802;2023-12-20T01:03:14;5.60;99.90
20881;DHT22;10600;53.096;8.802;2023-12-20T01:04:15;5.60;99.90
20881;DHT22;10600;53.096;8.802;2023-12-20T01:05:16;5.60;99.90
20881;DHT22;10600;53.096;8.802;2023-12-20T01:06:17;5.60;99.90
20881;DHT22;10600;53.096;8.802;2023-12-20T01:07:18;5.60;99.90
20881;DHT22;10600;53.096;8.802;2023-12-20T01:08:19;5.60;99.90
20881;DHT22;10600;53.096;8.802;2023-12-20T01:09:20;5.60;99.90
20881;DHT22;10600;53.096;8.802;2023-12-20T01:10:23;5.60;99.90
20881;DHT22;10600;53.096;8.802;2023-12-20T01:11:24;5.60;99.90
20881;DHT22;10600;53.096;8.802;2023-12-20T01:12:24;5.60;99.90
20881;DHT22;10600;53.096;8.802;2023-12-20T01:13:25;5.60;99.90
20881;DHT22;10600;53.096;8.802;2023-12-20T01:14:25;5.50;99.90
20881;DHT22;10600;53.096;8.802;2023-12-20T01:15:26;5.60;99.90
20881;DHT22;10600;53.096;8.802;2023-12-20T01:16:26;5.60;99.90
20881;DHT22;10600;53.096;8.802;2023-12-20T01:17:27;5.60;99.90
20881;DHT22;10600;53.096;8.802;2023-12-20T01:18:27;5.60;99.90
20881;DHT22;10600;53.096;8.802;2023-12-20T01:19:28;5.50;99.90
20881;DHT22;10600;53.096;8.802;2023-12-20T01:20:30;5.60;99.90
20881;DHT22;10600;53.096;8.802;2023-12-20T01:21:30;5.50;99.90
20881;DHT22;10600;53.096;8.802;2023-12-20T01:22:31;5.60;99.90
20881;DHT22;10600;53.096;8.802;2023-12-20T01:23:32;5.60;99.90
20881;DHT22;10600;53.096;8.802;2023-12-20T01:24:33;5.60;99.90
20881;DHT22;10600;53.096;8.802;2023-12-20T01:25:33;5.60;99.90
20881;DHT22;10600;53.096;8.802;2023-12-20T01:26:34;5.60;99.90
20881;DHT22;10600;53.096;8.802;2023-12-20T01:27:34;5.60;99.90
20881;DHT22;10600;53.096;8.802;2023-12-20T01:28:35;5.60;99.90
20881;DHT22;10600;53.096;8.802;2023-12-20T01:29:35;5.60;99.90
20881;DHT22;10600;53.096;8.802;2023-12-20T01:30:36;5.60;99.90
20881;DHT22;10600;53.096;8.802;2023-12-20T01:31:36;5.60;99.90
20881;DHT22;10600;53.096;8.802;2023-12-20T01:32:37;5.60;99.90
20881;DHT22;10600;53.096;8.802;2023-12-20T01:33:38;5.60;99.90
20881;DHT22;10600;53.096;8.802;2023-12-20T01:34:38;5.50;99.90
20881;DHT22;10600;53.096;8.802;2023-12-20T01:35:39;5.50;99.90
20881;DHT22;10600;53.096;8.802;2023-12-20T01:36:39;5.50;99.90
20881;DHT22;10600;53.096;8.802;2023-12-20T01:37:40;5.50;99.90
20881;DHT22;10600;53.096;8.802;2023-12-20T01:38:40;5.50;99.90
20881;DHT22;10600;53.096;8.802;2023-12-20T01:39:41;5.50;99.90
20881;DHT22;10600;53.096;8.802;2023-12-20T01:40:41;5.50;99.90
20881;DHT22;10600;53.096;8.802;2023-12-20T01:41:42;5.60;99.90
20881;DHT22;10600;53.096;8.802;2023-12-20T01:42:42;5.60;99.90
20881;DHT22;10600;53.096;8.802;2023-12-20T01:43:43;5.60;99.90
20881;DHT22;10600;53.096;8.802;2023-12-20T01:44:43;5.60;99.90
20881;DHT22;10600;53.096;8.802;2023-12-20T01:45:47;5.60;99.90
20881;DHT22;10600;53.096;8.802;2023-12-20T01:46:48;5.70;99.90
20881;DHT22;10600;53.096;8.802;2023-12-20T01:47:48;5.70;99.90
20881;DHT22;10600;53.096;8.802;2023-12-20T01:48:49;5.70;99.90
20881;DHT22;10600;53.096;8.802;2023-12-20T01:49:50;5.70;99.90
20881;DHT22;10600;53.096;8.802;2023-12-20T01:50:51;5.70;99.90
20881;DHT22;10600;53.096;8.802;2023-12-20T01:51:52;5.70;99.90
20881;DHT22;10600;53.096;8.802;2023-12-20T01:52:54;5.70;99.90
20881;DHT22;10600;53.096;8.802;2023-12-20T01:53:58;5.70;99.90
20881;DHT22;10600;53.096;8.802;2023-12-20T01:54:59;5.60;99.90
20881;DHT22;10600;53.096;8.802;2023-12-20T01:56:03;5.60;99.90
20881;DHT22;10600;53.096;8.802;2023-12-20T01:57:05;5.60;99.90
20881;DHT22;10600;53.096;8.802;2023-12-20T01:58:08;5.60;99.90
20881;DHT22;10600;53.096;8.802;2023-12-20T01:59:09;5.60;99.90
20881;DHT22;10600;53.096;8.802;2023-12-20T02:00:11;5.60;99.90
20881;DHT22;10600;53.096;8.802;2023-12-20T02:01:12;5.60;99.90
20881;DHT22;10600;53.096;8.802;2023-12-20T02:02:14;5.60;99.90
20881;DHT22;10600;53.096;8.802;2023-12-20T02:03:15;5.60;99.90
20881;DHT22;10600;53.096;8.802;2023-12-20T02:04:16;5.60;99.90
20881;DHT22;10600;53.096;8.802;2023-12-20T02:05:17;5.60;99.90
20881;DHT22;10600;53.096;8.802;2023-12-20T02:06:18;5.60;99.90
20881;DHT22;10600;53.096;8.802;2023-12-20T02:07:22;5.60;99.90
20881;DHT22;10600;53.096;8.802;2023-12-20T02:08:23;5.60;99.90
20881;DHT22;10600;53.096;8.802;2023-12-20T02:09:23;5.60;99.90
20881;DHT22;10600;53.096;8.802;2023-12-20T02:10:24;5.60;99.90
20881;DHT22;10600;53.096;8.802;2023-12-20T02:11:26;5.60;99.90
20881;DHT22;10600;53.096;8.802;2023-12-20T02:12:26;5.50;99.90
20881;DHT22;10600;53.096;8.802;2023-12-20T02:13:27;5.60;99.90
20881;DHT22;10600;53.096;8.802;2023-12-20T02:14:27;5.50;99.90
20881;DHT22;10600;53.096;8.802;2023-12-20T02:15:28;5.50;99.90
20881;DHT22;10600;53.096;8.802;2023-12-20T02:16:28;5.50;99.90
20881;DHT22;10600;53.096;8.802;2023-12-20T02:17:29;5.50;99.90
20881;DHT22;10600;53.096;8.802;2023-12-20T02:18:30;5.50;99.90
20881;DHT22;10600;53.096;8.802;2023-12-20T02:19:31;5.50;99.90
20881;DHT22;10600;53.096;8.802;2023-12-20T02:20:32;5.50;99.90
20881;DHT22;10600;53.096;8.802;2023-12-20T02:21:32;5.50;99.90
20881;DHT22;10600;53.096;8.802;2023-12-20T02:22:36;5.50;99.90
20881;DHT22;10600;53.096;8.802;2023-12-20T02:23:36;5.50;99.90
20881;DHT22;10600;53.096;8.802;2023-12-20T02:24:37;5.50;99.90
20881;DHT22;10600;53.096;8.802;2023-12-20T02:25:37;5.50;99.90
20881;DHT22;10600;53.096;8.802;2023-12-20T02:26:38;5.50;99.90
20881;DHT22;10600;53.096;8.802;2023-12-20T02:27:39;5.50;99.90
20881;DHT22;10600;53.096;8.802;2023-12-20T02:28:40;5.50;99.90
20881;DHT22;10600;53.096;8.802;2023-12-20T02:29:40;5.50;99.90
20881;DHT22;10600;53.096;8.802;2023-12-20T02:30:41;5.50;99.90
20881;DHT22;10600;53.096;8.802;2023-12-20T02:31:41;5.50;99.90
20881;DHT22;10600;53.096;8.802;2023-12-20T02:32:42;5.50;99.90
20881;DHT22;10600;53.096;8.802;2023-12-20T02:33:42;5.50;99.90
20881;DHT22;10600;53.096;8.802;2023-12-20T02:34:43;5.60;99.90
20881;DHT22;10600;53.096;8.802;2023-12-20T02:35:44;5.50;99.90
20881;DHT22;10600;53.096;8.802;2023-12-20T02:36:44;5.60;99.90
20881;DHT22;10600;53.096;8.802;2023-12-20T02:37:44;5.60;99.90
20881;DHT22;10600;53.096;8.802;2023-12-20T02:38:45;5.60;99.90
20881;DHT22;10600;53.096;8.802;2023-12-20T02:39:46;5.60;99.90
20881;DHT22;10600;53.096;8.802;2023-12-20T02:40:46;5.50;99.90
20881;DHT22;10600;53.096;8.802;2023-12-20T02:41:47;5.60;99.90
20881;DHT22;10600;53.096;8.802;2023-12-20T02:42:47;5.60;99.90
20881;DHT22;10600;53.096;8.802;2023-12-20T02:43:48;5.60;99.90
20881;DHT22;10600;53.096;8.802;2023-12-20T02:44:48;5.60;99.90
20881;DHT22;10600;53.096;8.802;2023-12-20T02:45:49;5.60;99.90
20881;DHT22;10600;53.096;8.802;2023-12-20T02:46:49;5.60;99.90
20881;DHT22;10600;53.096;8.802;2023-12-20T02:47:50;5.60;99.90
20881;DHT22;10600;53.096;8.802;2023-12-20T02:48:51;5.70;99.90
20881;DHT22;10600;53.096;8.802;2023-12-20T02:49:51;5.70;99.90
20881;DHT22;10600;53.096;8.802;2023-12-20T02:50:53;5.70;99.90
20881;DHT22;10600;53.096;8.802;2023-12-20T02:51:54;5.70;99.90
20881;DHT22;10600;53.096;8.802;2023-12-20T02:52:55;5.70;99.90
20881;DHT22;10600;53.096;8.802;2023-12-20T02:53:55;5.70;99.90
20881;DHT22;10600;53.096;8.802;2023-12-20T02:54:56;5.70;99.90
20881;DHT22;10600;53.096;8.802;2023-12-20T02:55:56;5.70;99.90
20881;DHT22;10600;53.096;8.802;2023-12-20T02:56:57;5.80;99.90
20881;DHT22;10600;53.096;8.802;2023-12-20T02:57:57;5.80;99.90
20881;DHT22;10600;53.096;8.802;2023-12-20T02:58:58;5.80;99.90
20881;DHT22;10600;53.096;8.802;2023-12-20T02:59:58;5.80;99.90
20881;DHT22;10600;53.096;8.802;2023-12-20T03:00:59;5.80;99.90
20881;DHT22;10600;53.096;8.802;2023-12-20T03:02:00;5.80;99.90
20881;DHT22;10600;53.096;8.802;2023-12-20T03:03:00;5.80;99.90
20881;DHT22;10600;53.096;8.802;2023-12-20T03:04:01;5.90;99.90
20881;DHT22;10600;53.096;8.802;2023-12-20T03:05:02;5.90;99.90
20881;DHT22;10600;53.096;8.802;2023-12-20T03:06:03;5.90;99.90
20881;DHT22;10600;53.096;8.802;2023-12-20T03:07:03;5.90;99.90
20881;DHT22;10600;53.096;8.802;2023-12-20T03:08:04;5.90;99.90
20881;DHT22;10600;53.096;8.802;2023-12-20T03:09:05;5.90;99.90
20881;DHT22;10600;53.096;8.802;2023-12-20T03:10:05;6.00;99.90
20881;DHT22;10600;53.096;8.802;2023-12-20T03:11:07;6.00;99.90
20881;DHT22;10600;53.096;8.802;2023-12-20T03:12:08;6.00;99.90
20881;DHT22;10600;53.096;8.802;2023-12-20T03:13:09;6.00;99.90
20881;DHT22;10600;53.096;8.802;2023-12-20T03:14:09;6.00;99.90
20881;DHT22;10600;53.096;8.802;2023-12-20T03:15:10;6.00;99.90
20881;DHT22;10600;53.096;8.802;2023-12-20T03:16:11;6.00;99.90
20881;DHT22;10600;53.096;8.802;2023-12-20T03:17:12;6.00;99.90
20881;DHT22;10600;53.096;8.802;2023-12-20T03:18:13;6.00;99.90
20881;DHT22;10600;53.096;8.802;2023-12-20T03:19:13;6.00;99.90
20881;DHT22;10600;53.096;8.802;2023-12-20T03:20:14;6.00;99.90
20881;DHT22;10600;53.096;8.802;2023-12-20T03:21:15;6.00;99.90
20881;DHT22;10600;53.096;8.802;2023-12-20T03:22:15;6.00;99.90
20881;DHT22;10600;53.096;8.802;2023-12-20T03:23:16;6.00;99.90
20881;DHT22;10600;53.096;8.802;2023-12-20T03:24:16;6.00;99.90
20881;DHT22;10600;53.096;8.802;2023-12-20T03:25:17;6.00;99.90
20881;DHT22;10600;53.096;8.802;2023-12-20T03:26:17;6.00;99.90
20881;DHT22;10600;53.096;8.802;2023-12-20T03:27:18;6.00;99.90
20881;DHT22;10600;53.096;8.802;2023-12-20T03:28:18;6.00;99.90
20881;DHT22;10600;53.096;8.802;2023-12-20T03:29:19;6.00;99.90
20881;DHT22;10600;53.096;8.802;2023-12-20T03:30:20;6.00;99.90
20881;DHT22;10600;53.096;8.802;2023-12-20T03:31:20;6.00;99.90
20881;DHT22;10600;53.096;8.802;2023-12-20T03:32:22;6.00;99.90
20881;DHT22;10600;53.096;8.802;2023-12-20T03:33:22;6.00;99.90
20881;DHT22;10600;53.096;8.802;2023-12-20T03:34:23;6.00;99.90
20881;DHT22;10600;53.096;8.802;2023-12-20T03:35:23;6.00;99.90
20881;DHT22;10600;53.096;8.802;2023-12-20T03:36:24;6.00;99.90
20881;DHT22;10600;53.096;8.802;2023-12-20T03:37:24;6.00;99.90
20881;DHT22;10600;53.096;8.802;2023-12-20T03:38:25;6.00;99.90
20881;DHT22;10600;53.096;8.802;2023-12-20T03:39:25;6.00;99.90
20881;DHT22;10600;53.096;8.802;2023-12-20T03:40:26;6.00;99.90
20881;DHT22;10600;53.096;8.802;2023-12-20T03:41:26;6.00;99.90
20881;DHT22;10600;53.096;8.802;2023-12-20T03:42:27;6.00;99.90
20881;DHT22;10600;53.096;8.802;2023-12-20T03:43:27;6.00;99.90
20881;DHT22;10600;53.096;8.802;2023-12-20T03:44:28;6.00;99.90
20881;DHT22;10600;53.096;8.802;2023-12-20T03:45:28;6.00;99.90
20881;DHT22;10600;53.096;8.802;2023-12-20T03:46:29;6.00;99.90
20881;DHT22;10600;53.096;8.802;2023-12-20T03:47:29;6.00;99.90
20881;DHT22;10600;53.096;8.802;2023-12-20T03:48:33;6.10;99.90
20881;DHT22;10600;53.096;8.802;2023-12-20T03:49:33;6.00;99.90
20881;DHT22;10600;53.096;8.802;2023-12-20T03:50:34;6.10;99.90
20881;DHT22;10600;53.096;8.802;2023-12-20T03:51:35;6.10;99.90
20881;DHT22;10600;53.096;8.802;2023-12-20T03:52:35;6.10;99.90
20881;DHT22;10600;53.096;8.802;2023-12-20T03:53:36;6.10;99.90
20881;DHT22;10600;53.096;8.802;2023-12-20T03:54:36;6.10;99.90
20881;DHT22;10600;53.096;8.802;2023-12-20T03:55:37;6.00;99.90
20881;DHT22;10600;53.096;8.802;2023-12-20T03:56:37;6.10;99.90
20881;DHT22;10600;53.096;8.802;2023-12-20T03:57:38;6.10;99.90
20881;DHT22;10600;53.096;8.802;2023-12-20T03:58:38;6.10;99.90
20881;DHT22;10600;53.096;8.802;2023-12-20T03:59:39;6.10;99.90
20881;DHT22;10600;53.096;8.802;2023-12-20T04:00:39;6.10;99.90
20881;DHT22;10600;53.096;8.802;2023-12-20T04:01:43;6.10;99.90
20881;DHT22;10600;53.096;8.802;2023-12-20T04:02:44;6.10;99.90
20881;DHT22;10600;53.096;8.802;2023-12-20T04:03:45;6.10;99.90
20881;DHT22;10600;53.096;8.802;2023-12-20T04:04:45;6.10;99.90
20881;DHT22;10600;53.096;8.802;2023-12-20T04:05:46;6.10;99.90
20881;DHT22;10600;53.096;8.802;2023-12-20T04:06:47;6.10;99.90
20881;DHT22;10600;53.096;8.802;2023-12-20T04:07:47;6.10;99.90
20881;DHT22;10600;53.096;8.802;2023-12-20T04:08:48;6.10;99.90
20881;DHT22;10600;53.096;8.802;2023-12-20T04:09:48;6.10;99.90
20881;DHT22;10600;53.096;8.802;2023-12-20T04:10:49;6.10;99.90
20881;DHT22;10600;53.096;8.802;2023-12-20T04:11:49;6.10;99.90
20881;DHT22;10600;53.096;8.802;2023-12-20T04:12:50;6.10;99.90
20881;DHT22;10600;53.096;8.802;2023-12-20T04:13:50;6.10;99.90
20881;DHT22;10600;53.096;8.802;2023-12-20T04:14:51;6.10;99.90
20881;DHT22;10600;53.096;8.802;2023-12-20T04:15:51;6.10;99.90
20881;DHT22;10600;53.096;8.802;2023-12-20T04:16:53;6.10;99.90
20881;DHT22;10600;53.096;8.802;2023-12-20T04:17:53;6.10;99.90
20881;DHT22;10600;53.096;8.802;2023-12-20T04:18:54;6.20;99.90
20881;DHT22;10600;53.096;8.802;2023-12-20T04:19:54;6.20;99.90
20881;DHT22;10600;53.096;8.802;2023-12-20T04:20:55;6.20;99.90
20881;DHT22;10600;53.096;8.802;2023-12-20T04:21:56;6.20;99.90
20881;DHT22;10600;53.096;8.802;2023-12-20T04:22:56;6.20;99.90
20881;DHT22;10600;53.096;8.802;2023-12-20T04:23:57;6.20;99.90
20881;DHT22;10600;53.096;8.802;2023-12-20T04:24:57;6.20;99.90
20881;DHT22;10600;53.096;8.802;2023-12-20T04:25:58;6.20;99.90
20881;DHT22;10600;53.096;8.802;2023-12-20T04:26:58;6.20;99.90
20881;DHT22;10600;53.096;8.802;2023-12-20T04:27:59;6.20;99.90
20881;DHT22;10600;53.096;8.802;2023-12-20T04:28:59;6.20;99.90
20881;DHT22;10600;53.096;8.802;2023-12-20T04:30:00;6.20;99.90
20881;DHT22;10600;53.096;8.802;2023-12-20T04:31:00;6.20;99.90
20881;DHT22;10600;53.096;8.802;2023-12-20T04:32:01;6.20;99.90
20881;DHT22;10600;53.096;8.802;2023-12-20T04:33:02;6.20;99.90
20881;DHT22;10600;53.096;8.802;2023-12-20T04:34:02;6.20;99.90
20881;DHT22;10600;53.096;8.802;2023-12-20T04:35:03;6.20;99.90
20881;DHT22;10600;53.096;8.802;2023-12-20T04:36:04;6.30;99.90
20881;DHT22;10600;53.096;8.802;2023-12-20T04:37:05;6.30;99.90
20881;DHT22;10600;53.096;8.802;2023-12-20T04:38:05;6.30;99.90
20881;DHT22;10600;53.096;8.802;2023-12-20T04:39:06;6.20;99.90
20881;DHT22;10600;53.096;8.802;2023-12-20T04:40:07;6.30;99.90
20881;DHT22;10600;53.096;8.802;2023-12-20T04:41:08;6.30;99.90
20881;DHT22;10600;53.096;8.802;2023-12-20T04:42:09;6.20;99.90
20881;DHT22;10600;53.096;8.802;2023-12-20T04:43:09;6.20;99.90
20881;DHT22;10600;53.096;8.802;2023-12-20T04:44:10;6.30;99.90
20881;DHT22;10600;53.096;8.802;2023-12-20T04:45:10;6.20;99.90
20881;DHT22;10600;53.096;8.802;2023-12-20T04:46:13;6.20;99.90
20881;DHT22;10600;53.096;8.802;2023-12-20T04:47:13;6.20;99.90
20881;DHT22;10600;53.096;8.802;2023-12-20T04:48:14;6.20;99.90
20881;DHT22;10600;53.096;8.802;2023-12-20T04:49:14;6.20;99.90
20881;DHT22;10600;53.096;8.802;2023-12-20T04:50:15;6.20;99.90
20881;DHT22;10600;53.096;8.802;2023-12-20T04:51:16;6.20;99.90
20881;DHT22;10600;53.096;8.802;2023-12-20T04:52:16;6.20;99.90
20881;DHT22;10600;53.096;8.802;2023-12-20T04:53:17;6.20;99.90
20881;DHT22;10600;53.096;8.802;2023-12-20T04:54:17;6.20;99.90
20881;DHT22;10600;53.096;8.802;2023-12-20T04:55:18;6.20;99.90
20881;DHT22;10600;53.096;8.802;2023-12-20T04:56:18;6.20;99.90
20881;DHT22;10600;53.096;8.802;2023-12-20T04:57:19;6.20;99.90
20881;DHT22;10600;53.096;8.802;2023-12-20T04:58:20;6.20;99.90
20881;DHT22;10600;53.096;8.802;2023-12-20T04:59:20;6.20;99.90
20881;DHT22;10600;53.096;8.802;2023-12-20T05:00:21;6.30;99.90
20881;DHT22;10600;53.096;8.802;2023-12-20T05:01:21;6.30;99.90
20881;DHT22;10600;53.096;8.802;2023-12-20T05:02:22;6.30;99.90
20881;DHT22;10600;53.096;8.802;2023-12-20T05:03:22;6.30;99.90
20881;DHT22;10600;53.096;8.802;2023-12-20T05:04:23;6.30;99.90
20881;DHT22;10600;53.096;8.802;2023-12-20T05:05:23;6.30;99.90
20881;DHT22;10600;53.096;8.802;2023-12-20T05:06:24;6.30;99.90
20881;DHT22;10600;53.096;8.802;2023-12-20T05:07:25;6.30;99.90
20881;DHT22;10600;53.096;8.802;2023-12-20T05:08:25;6.30;99.90
20881;DHT22;10600;53.096;8.802;2023-12-20T05:09:26;6.30;99.90
20881;DHT22;10600;53.096;8.802;2023-12-20T05:10:26;6.30;99.90
20881;DHT22;10600;53.096;8.802;2023-12-20T05:11:28;6.30;99.90
20881;DHT22;10600;53.096;8.802;2023-12-20T05:12:29;6.30;99.90
20881;DHT22;10600;53.096;8.802;2023-12-20T05:13:29;6.30;99.90
20881;DHT22;10600;53.096;8.802;2023-12-20T05:14:29;6.30;99.90
20881;DHT22;10600;53.096;8.802;2023-12-20T05:15:30;6.30;99.90
20881;DHT22;10600;53.096;8.802;2023-12-20T05:16:31;6.30;99.90
20881;DHT22;10600;53.096;8.802;2023-12-20T05:17:31;6.30;99.90
20881;DHT22;10600;53.096;8.802;2023-12-20T05:18:32;6.30;99.90
20881;DHT22;10600;53.096;8.802;2023-12-20T05:19:33;6.30;99.90
20881;DHT22;10600;53.096;8.802;2023-12-20T05:20:35;6.30;99.90
20881;DHT22;10600;53.096;8.802;2023-12-20T05:21:39;6.30;99.90
20881;DHT22;10600;53.096;8.802;2023-12-20T05:22:41;6.40;99.90
20881;DHT22;10600;53.096;8.802;2023-12-20T05:23:53;6.30;99.90
20881;DHT22;10600;53.096;8.802;2023-12-20T05:24:53;6.30;99.90
20881;DHT22;10600;53.096;8.802;2023-12-20T05:25:54;6.30;99.90
20881;DHT22;10600;53.096;8.802;2023-12-20T05:26:55;6.30;99.90
20881;DHT22;10600;53.096;8.802;2023-12-20T05:27:56;6.30;99.90
20881;DHT22;10600;53.096;8.802;2023-12-20T05:28:56;6.30;99.90
20881;DHT22;10600;53.096;8.802;2023-12-20T05:29:57;6.30;99.90
20881;DHT22;10600;53.096;8.802;2023-12-20T05:30:58;6.30;99.90
20881;DHT22;10600;53.096;8.802;2023-12-20T05:31:58;6.30;99.90
20881;DHT22;10600;53.096;8.802;2023-12-20T05:32:59;6.30;99.90
20881;DHT22;10600;53.096;8.802;2023-12-20T05:34:00;6.30;99.90
20881;DHT22;10600;53.096;8.802;2023-12-20T05:35:00;6.30;99.90
20881;DHT22;10600;53.096;8.802;2023-12-20T05:36:01;6.30;99.90
20881;DHT22;10600;53.096;8.802;2023-12-20T05:37:01;6.30;99.90
20881;DHT22;10600;53.096;8.802;2023-12-20T05:38:02;6.30;99.90
20881;DHT22;10600;53.096;8.802;2023-12-20T05:39:03;6.30;99.90
20881;DHT22;10600;53.096;8.802;2023-12-20T05:40:08;6.30;99.90
20881;DHT22;10600;53.096;8.802;2023-12-20T05:41:10;6.40;99.90
20881;DHT22;10600;53.096;8.802;2023-12-20T05:42:11;6.30;99.90
20881;DHT22;10600;53.096;8.802;2023-12-20T05:43:12;6.40;99.90
20881;DHT22;10600;53.096;8.802;2023-12-20T05:44:12;6.40;99.90
20881;DHT22;10600;53.096;8.802;2023-12-20T05:45:14;6.40;99.90
20881;DHT22;10600;53.096;8.802;2023-12-20T05:46:15;6.30;99.90
20881;DHT22;10600;53.096;8.802;2023-12-20T05:47:15;6.40;99.90
20881;DHT22;10600;53.096;8.802;2023-12-20T05:48:16;6.40;99.90
20881;DHT22;10600;53.096;8.802;2023-12-20T05:49:16;6.40;99.90
20881;DHT22;10600;53.096;8.802;2023-12-20T05:50:17;6.40;99.90
20881;DHT22;10600;53.096;8.802;2023-12-20T05:51:18;6.40;99.90
20881;DHT22;10600;53.096;8.802;2023-12-20T05:52:18;6.40;99.90
20881;DHT22;10600;53.096;8.802;2023-12-20T05:53:19;6.40;99.90
20881;DHT22;10600;53.096;8.802;2023-12-20T05:54:19;6.40;99.90
20881;DHT22;10600;53.096;8.802;2023-12-20T05:55:20;6.40;99.90
20881;DHT22;10600;53.096;8.802;2023-12-20T05:56:20;6.50;99.90
20881;DHT22;10600;53.096;8.802;2023-12-20T05:57:21;6.50;99.90
20881;DHT22;10600;53.096;8.802;2023-12-20T05:58:21;6.50;99.90
20881;DHT22;10600;53.096;8.802;2023-12-20T05:59:22;6.50;99.90
20881;DHT22;10600;53.096;8.802;2023-12-20T06:00:26;6.50;99.90
20881;DHT22;10600;53.096;8.802;2023-12-20T06:01:27;6.50;99.90
20881;DHT22;10600;53.096;8.802;2023-12-20T06:02:27;6.50;99.90
20881;DHT22;10600;53.096;8.802;2023-12-20T06:03:28;6.50;99.90
20881;DHT22;10600;53.096;8.802;2023-12-20T06:04:28;6.50;99.90
20881;DHT22;10600;53.096;8.802;2023-12-20T06:05:29;6.60;99.90
20881;DHT22;10600;53.096;8.802;2023-12-20T06:06:29;6.50;99.90
20881;DHT22;10600;53.096;8.802;2023-12-20T06:07:30;6.60;99.90
20881;DHT22;10600;53.096;8.802;2023-12-20T06:08:31;6.50;99.90
20881;DHT22;10600;53.096;8.802;2023-12-20T06:09:31;6.60;99.90
20881;DHT22;10600;53.096;8.802;2023-12-20T06:10:32;6.60;99.90
20881;DHT22;10600;53.096;8.802;2023-12-20T06:11:32;6.50;99.90
20881;DHT22;10600;53.096;8.802;2023-12-20T06:12:33;6.60;99.90
20881;DHT22;10600;53.096;8.802;2023-12-20T06:13:36;6.50;99.90
20881;DHT22;10600;53.096;8.802;2023-12-20T06:14:36;6.60;99.90
20881;DHT22;10600;53.096;8.802;2023-12-20T06:15:37;6.50;99.90
20881;DHT22;10600;53.096;8.802;2023-12-20T06:16:37;6.60;99.90
20881;DHT22;10600;53.096;8.802;2023-12-20T06:17:38;6.60;99.90
20881;DHT22;10600;53.096;8.802;2023-12-20T06:18:38;6.60;99.90
20881;DHT22;10600;53.096;8.802;2023-12-20T06:19:39;6.60;99.90
20881;DHT22;10600;53.096;8.802;2023-12-20T06:20:39;6.60;99.90
20881;DHT22;10600;53.096;8.802;2023-12-20T06:21:40;6.60;99.90
20881;DHT22;10600;53.096;8.802;2023-12-20T06:22:40;6.60;99.90
20881;DHT22;10600;53.096;8.802;2023-12-20T06:23:41;6.70;99.90
20881;DHT22;10600;53.096;8.802;2023-12-20T06:24:41;6.70;99.90
20881;DHT22;10600;53.096;8.802;2023-12-20T06:25:42;6.70;99.90
20881;DHT22;10600;53.096;8.802;2023-12-20T06:26:42;6.70;99.90
20881;DHT22;10600;53.096;8.802;2023-12-20T06:27:43;6.70;99.90
20881;DHT22;10600;53.096;8.802;2023-12-20T06:28:44;6.70;99.90
20881;DHT22;10600;53.096;8.802;2023-12-20T06:29:44;6.70;99.90